Time;durP1;ratioP1;P1;durP2;ratioP2;P2;SDS_P1;SDS_P2;PMS_P1;PMS_P2;Temp;Humidity;BMP_temperature;BMP_pressure;BME280_temperature;BME280_humidity;BME280_pressure;Samples;Min_cycle;Max_cycle;Signal;HPM_P1;HPM_P2
2021/06/17 00:00:25;;;;;;;4.07;3.35;;;16.30;70.20;;;;;;5015097;28;20029;-77
2021/06/17 00:02:56;;;;;;;5.88;4.15;;;16.40;69.50;;;;;;5026520;28;20051;-77
2021/06/17 00:05:23;;;;;;;7.75;3.78;;;16.30;70.60;;;;;;5019590;28;20080;-77
2021/06/17 00:07:50;;;;;;;4.10;3.53;;;16.20;71.50;;;;;;5023031;28;20040;-77
2021/06/17 00:10:24;;;;;;;4.68;3.33;;;16.00;72.10;;;;;;5014601;28;20116;-77
2021/06/17 00:12:50;;;;;;;6.45;3.95;;;15.90;72.20;;;;;;5015446;28;20029;-77
2021/06/17 00:15:17;;;;;;;5.50;3.47;;;16.10;71.90;;;;;;5017334;28;20040;-77
2021/06/17 00:17:44;;;;;;;4.25;3.30;;;16.10;71.80;;;;;;5016802;28;20492;-77
2021/06/17 00:20:11;;;;;;;3.72;3.20;;;16.10;70.70;;;;;;5014919;28;20033;-78
2021/06/17 00:22:37;;;;;;;4.05;3.22;;;16.10;70.50;;;;;;5016707;28;20037;-77
2021/06/17 00:25:05;;;;;;;8.77;3.42;;;16.10;71.00;;;;;;5022899;28;20105;-77
2021/06/17 00:27:30;;;;;;;5.50;3.47;;;16.00;71.40;;;;;;5017456;28;20032;-77
2021/06/17 00:29:56;;;;;;;5.95;3.60;;;15.90;72.00;;;;;;5016331;28;20037;-77
2021/06/17 00:32:22;;;;;;;4.78;3.35;;;15.90;72.60;;;;;;5020690;28;20052;-78
2021/06/17 00:34:48;;;;;;;5.88;3.38;;;15.90;72.50;;;;;;5023666;28;20049;-77
2021/06/17 00:37:14;;;;;;;4.63;3.10;;;15.90;71.40;;;;;;5016397;28;20041;-77
2021/06/17 00:39:40;;;;;;;4.80;3.60;;;16.00;71.40;;;;;;5032304;28;20061;-78
2021/06/17 00:42:06;;;;;;;5.13;3.45;;;15.90;72.10;;;;;;5016614;28;20038;-77
2021/06/17 00:44:33;;;;;;;4.55;3.30;;;15.80;72.30;;;;;;5019323;28;20488;-77
2021/06/17 00:46:59;;;;;;;4.28;3.47;;;15.80;72.30;;;;;;5020856;28;20034;-77
2021/06/17 00:49:24;;;;;;;5.38;3.67;;;15.80;71.80;;;;;;5019681;28;20566;-77
2021/06/17 00:51:50;;;;;;;4.22;3.30;;;15.80;72.00;;;;;;5023166;28;20029;-78
2021/06/17 00:54:31;;;;;;;4.32;3.50;;;15.70;72.20;;;;;;5025990;28;20046;-78
2021/06/17 00:57:03;;;;;;;5.50;3.80;;;15.70;71.60;;;;;;5023560;28;20048;-77
2021/06/17 00:59:29;;;;;;;4.72;3.65;;;15.80;71.30;;;;;;5022904;28;20029;-78
2021/06/17 01:01:55;;;;;;;6.13;4.05;;;15.60;73.00;;;;;;5027208;28;20040;-77
2021/06/17 01:04:22;;;;;;;5.78;4.40;;;15.50;73.60;;;;;;5022090;28;20029;-77
2021/06/17 01:06:50;;;;;;;4.82;3.67;;;15.40;73.00;;;;;;5023018;28;20029;-77
2021/06/17 01:09:40;;;;;;;7.57;4.07;;;15.40;72.10;;;;;;5022195;28;20554;-77
2021/06/17 01:12:17;;;;;;;4.85;4.35;;;15.50;72.10;;;;;;5024850;28;20041;-77
2021/06/17 01:15:09;;;;;;;7.97;4.35;;;15.50;72.40;;;;;;5025084;28;20013;-77
2021/06/17 01:17:39;;;;;;;5.25;3.67;;;15.50;72.80;;;;;;5022144;28;20020;-77
2021/06/17 01:20:05;;;;;;;5.43;3.63;;;15.40;73.00;;;;;;5017460;28;20036;-77
2021/06/17 01:22:49;;;;;;;4.35;3.50;;;15.30;73.10;;;;;;5042363;28;20512;-77
2021/06/17 01:25:28;;;;;;;5.20;4.07;;;15.40;72.80;;;;;;5019804;28;20049;-77
2021/06/17 01:28:12;;;;;;;4.30;3.33;;;15.30;73.50;;;;;;5018767;28;20091;-77
2021/06/17 01:30:44;;;;;;;4.82;3.67;;;15.30;73.90;;;;;;5023048;28;20033;-78
2021/06/17 01:33:11;;;;;;;6.03;3.53;;;15.30;73.60;;;;;;5026478;28;20029;-77
2021/06/17 01:35:43;;;;;;;7.80;3.30;;;15.30;73.10;;;;;;5033099;28;20025;-77
2021/06/17 01:38:10;;;;;;;7.25;3.75;;;15.20;72.40;;;;;;5021317;28;20029;-77
2021/06/17 01:40:36;;;;;;;4.97;3.67;;;15.20;72.60;;;;;;5016432;28;20022;-77
2021/06/17 01:43:04;;;;;;;7.03;4.20;;;15.10;74.20;;;;;;5020215;28;20034;-77
2021/06/17 01:45:30;;;;;;;6.03;4.32;;;15.10;73.10;;;;;;5015281;28;20116;-77
2021/06/17 01:48:01;;;;;;;7.00;4.00;;;15.00;73.10;;;;;;5018852;28;20040;-78
2021/06/17 01:50:28;;;;;;;6.43;3.75;;;15.00;73.70;;;;;;5019988;28;20033;-77
2021/06/17 01:52:55;;;;;;;5.13;3.70;;;14.90;74.50;;;;;;5021176;28;20037;-78
2021/06/17 01:55:22;;;;;;;5.28;3.90;;;14.70;75.30;;;;;;5019652;28;20041;-77
2021/06/17 01:57:49;;;;;;;4.65;3.70;;;14.70;75.90;;;;;;5022873;28;20021;-77
2021/06/17 02:00:15;;;;;;;5.10;3.55;;;14.70;75.40;;;;;;5020006;28;20030;-77
2021/06/17 02:02:41;;;;;;;8.38;3.92;;;14.80;75.30;;;;;;5022773;28;20132;-78
2021/06/17 02:05:09;;;;;;;7.57;4.32;;;14.70;75.80;;;;;;5019765;28;20058;-77
2021/06/17 02:07:37;;;;;;;8.32;4.22;;;14.60;76.20;;;;;;5015297;28;20033;-77
2021/06/17 02:10:04;;;;;;;7.88;3.97;;;14.60;76.60;;;;;;5025557;28;20471;-77
2021/06/17 02:12:31;;;;;;;7.18;3.90;;;14.50;76.90;;;;;;5020286;28;20121;-77
2021/06/17 02:14:57;;;;;;;6.95;4.18;;;14.50;76.50;;;;;;5032702;28;20026;-77
2021/06/17 02:17:24;;;;;;;4.85;3.70;;;14.50;76.90;;;;;;5021928;28;20469;-77
2021/06/17 02:19:51;;;;;;;4.30;3.80;;;14.50;76.80;;;;;;5027601;28;20034;-77
2021/06/17 02:22:18;;;;;;;5.50;3.90;;;14.50;74.80;;;;;;5021630;28;20036;-76
2021/06/17 02:24:48;;;;;;;7.28;4.00;;;14.60;75.10;;;;;;5020464;28;20114;-77
2021/06/17 02:27:19;;;;;;;5.47;4.00;;;14.40;76.30;;;;;;5016644;28;21653;-77
2021/06/17 02:29:47;;;;;;;5.03;3.90;;;14.40;76.40;;;;;;5018298;28;20096;-78
2021/06/17 02:32:16;;;;;;;;;;;14.50;75.00;;;;;;5024858;28;20029;-77
2021/06/17 02:34:44;;;;;;;3.03;2.72;;;14.20;75.00;;;;;;5020870;28;19988;-77
2021/06/17 02:37:10;;;;;;;3.72;3.30;;;14.00;75.80;;;;;;5017721;28;20018;-77
2021/06/17 02:39:37;;;;;;;6.40;3.50;;;14.00;76.40;;;;;;5022722;28;20117;-77
2021/06/17 02:42:05;;;;;;;4.35;3.47;;;14.00;78.20;;;;;;5017922;28;20033;-77
2021/06/17 02:44:32;;;;;;;2.67;2.42;;;14.10;76.90;;;;;;5016176;28;20530;-77
2021/06/17 02:46:57;;;;;;;6.38;3.13;;;14.20;76.20;;;;;;5020508;28;20087;-77
2021/06/17 02:49:23;;;;;;;3.83;3.30;;;14.20;76.30;;;;;;5020062;28;20025;-77
2021/06/17 02:51:49;;;;;;;6.63;3.78;;;14.30;76.40;;;;;;5021942;28;20025;-77
2021/06/17 02:54:20;;;;;;;6.28;4.78;;;14.00;78.20;;;;;;5025559;28;20037;-77
2021/06/17 02:57:14;;;;;;;4.95;4.05;;;13.90;79.20;;;;;;5025708;28;20500;-77
2021/06/17 03:00:01;;;;;;;7.03;4.22;;;13.80;78.60;;;;;;5036244;28;20033;-78
2021/06/17 03:02:37;;;;;;;6.70;4.40;;;13.80;79.70;;;;;;5025738;28;20168;-77
2021/06/17 03:05:15;;;;;;;9.90;4.28;;;13.80;79.50;;;;;;5019323;28;20033;-77
2021/06/17 03:08:05;;;;;;;5.95;4.30;;;13.80;78.80;;;;;;5022456;28;20021;-77
2021/06/17 03:10:31;;;;;;;6.70;4.45;;;13.90;77.80;;;;;;5027589;28;20080;-77
2021/06/17 03:13:03;;;;;;;6.72;4.43;;;14.00;77.90;;;;;;5022605;28;20029;-78
2021/06/17 03:15:36;;;;;;;7.00;4.80;;;13.90;78.70;;;;;;5022657;28;20032;-78
2021/06/17 03:18:05;;;;;;;6.57;4.25;;;13.90;78.10;;;;;;5024764;28;20163;-77
2021/06/17 03:20:34;;;;;;;6.18;4.32;;;13.90;77.40;;;;;;5025376;28;20037;-77
2021/06/17 03:23:04;;;;;;;5.68;4.10;;;13.90;75.80;;;;;;5023218;28;20030;-77
2021/06/17 03:25:30;;;;;;;5.25;4.05;;;13.90;75.40;;;;;;5024224;28;20072;-77
2021/06/17 03:27:57;;;;;;;5.32;3.50;;;13.80;75.70;;;;;;5022315;28;20117;-78
2021/06/17 03:30:26;;;;;;;6.10;4.43;;;13.80;75.20;;;;;;5024424;28;20144;-77
2021/06/17 03:32:55;;;;;;;7.07;3.67;;;13.80;76.00;;;;;;5022162;28;20033;-78
2021/06/17 03:35:21;;;;;;;;;;;13.80;77.10;;;;;;5025655;28;20392;-79
2021/06/17 03:37:51;;;;;;;3.78;3.38;;;13.80;75.30;;;;;;5028351;28;20004;-77
2021/06/17 03:40:18;;;;;;;5.65;4.28;;;13.80;74.90;;;;;;5020007;28;20026;-76
2021/06/17 03:42:46;;;;;;;6.80;3.78;;;13.70;77.20;;;;;;5018164;28;20156;-77
2021/06/17 03:45:13;;;;;;;5.65;3.97;;;13.70;79.10;;;;;;5016166;28;20026;-77
2021/06/17 03:47:43;;;;;;;4.30;3.83;;;13.80;79.10;;;;;;5016431;28;20033;-78
2021/06/17 03:50:11;;;;;;;5.90;4.00;;;13.90;78.10;;;;;;5016487;28;20068;-79
2021/06/17 03:52:38;;;;;;;7.33;4.20;;;14.00;78.00;;;;;;5021995;28;20029;-77
2021/06/17 03:55:04;;;;;;;5.10;3.95;;;14.00;76.80;;;;;;5018009;28;20032;-76
2021/06/17 03:57:30;;;;;;;5.72;3.72;;;14.10;78.00;;;;;;5022641;28;20043;-77
2021/06/17 03:59:57;;;;;;;6.50;4.00;;;14.10;77.90;;;;;;5020035;28;20439;-78
2021/06/17 04:02:24;;;;;;;5.22;3.80;;;14.20;77.00;;;;;;5019812;28;20403;-76
2021/06/17 04:04:52;;;;;;;4.72;3.80;;;14.30;77.10;;;;;;5025422;28;20026;-78
2021/06/17 04:07:23;;;;;;;5.28;3.67;;;14.30;77.80;;;;;;5017236;28;20036;-78
2021/06/17 04:09:50;;;;;;;4.60;3.70;;;14.30;78.60;;;;;;5020292;28;20038;-78
2021/06/17 04:12:18;;;;;;;6.03;3.78;;;14.30;78.40;;;;;;5024051;28;20041;-77
2021/06/17 04:14:47;;;;;;;5.90;3.63;;;14.40;77.90;;;;;;5023653;28;20038;-78
2021/06/17 04:17:19;;;;;;;5.60;3.53;;;14.40;78.20;;;;;;5028766;28;20025;-79
2021/06/17 04:19:46;;;;;;;5.13;3.42;;;14.50;78.00;;;;;;5026441;28;20017;-79
2021/06/17 04:22:14;;;;;;;4.78;3.85;;;14.50;77.50;;;;;;5020827;28;20032;-78
2021/06/17 04:24:43;;;;;;;5.88;4.28;;;14.60;77.00;;;;;;5022045;28;20056;-78
2021/06/17 04:27:10;;;;;;;4.45;3.97;;;14.60;77.80;;;;;;5027379;28;20041;-77
2021/06/17 04:29:38;;;;;;;4.47;3.53;;;14.60;78.10;;;;;;5027557;28;20052;-77
2021/06/17 04:32:07;;;;;;;4.45;3.90;;;14.60;78.50;;;;;;5026359;28;20032;-78
2021/06/17 04:34:34;;;;;;;4.75;4.20;;;14.60;78.20;;;;;;5025528;28;20021;-78
2021/06/17 04:37:03;;;;;;;4.15;3.40;;;14.60;78.50;;;;;;5026406;28;20029;-79
2021/06/17 04:39:28;;;;;;;4.60;3.60;;;14.60;78.80;;;;;;5025486;28;20053;-78
2021/06/17 04:41:54;;;;;;;3.80;3.47;;;14.70;79.00;;;;;;5021517;28;20516;-78
2021/06/17 04:44:24;;;;;;;4.03;3.70;;;14.80;78.90;;;;;;5026303;28;20409;-77
2021/06/17 04:46:51;;;;;;;5.22;3.90;;;14.90;78.50;;;;;;5019222;28;20022;-79
2021/06/17 04:49:17;;;;;;;7.55;3.80;;;15.10;78.10;;;;;;5023866;28;22118;-77
2021/06/17 04:51:43;;;;;;;4.35;3.67;;;15.20;77.90;;;;;;5021941;28;20021;-77
2021/06/17 04:54:28;;;;;;;5.03;3.75;;;15.30;77.00;;;;;;5017707;28;20050;-79
2021/06/17 04:56:55;;;;;;;6.65;4.88;;;15.40;76.70;;;;;;5013736;28;20025;-78
2021/06/17 04:59:20;;;;;;;5.22;4.22;;;15.60;77.10;;;;;;5019395;28;20029;-78
2021/06/17 05:01:47;;;;;;;5.35;4.32;;;15.70;76.70;;;;;;5021788;28;20092;-78
2021/06/17 05:04:14;;;;;;;7.32;4.55;;;15.80;76.30;;;;;;5019296;28;20827;-78
2021/06/17 05:06:42;;;;;;;4.67;4.07;;;15.90;76.20;;;;;;5022503;28;21672;-78
2021/06/17 05:11:53;;;;;;;7.47;4.80;;;16.10;77.10;;;;;;5021116;28;20144;-78
2021/06/17 05:14:20;;;;;;;7.20;4.60;;;16.20;78.80;;;;;;5018671;28;20048;-77
2021/06/17 05:16:47;;;;;;;6.43;4.82;;;16.40;79.00;;;;;;5016874;28;20032;-78
2021/06/17 05:19:13;;;;;;;6.97;4.93;;;16.50;77.70;;;;;;5024062;28;20387;-77
2021/06/17 05:21:39;;;;;;;7.55;5.22;;;16.60;78.10;;;;;;5026221;28;20442;-77
2021/06/17 05:24:06;;;;;;;6.18;5.50;;;16.70;78.80;;;;;;5021329;28;20026;-78
2021/06/17 05:26:32;;;;;;;8.98;4.93;;;16.80;77.80;;;;;;5026805;28;20049;-77
2021/06/17 05:28:58;;;;;;;7.18;4.78;;;17.00;76.10;;;;;;5023938;28;20033;-78
2021/06/17 05:31:23;;;;;;;6.03;5.18;;;17.10;76.00;;;;;;5019472;28;20073;-78
2021/06/17 05:33:49;;;;;;;5.85;4.80;;;17.20;77.20;;;;;;5028815;28;20030;-78
2021/06/17 05:36:15;;;;;;;6.47;5.07;;;17.20;77.50;;;;;;5025854;28;20026;-78
2021/06/17 05:38:41;;;;;;;7.13;4.95;;;17.30;76.80;;;;;;5026033;28;20022;-78
2021/06/17 05:41:07;;;;;;;5.80;4.85;;;17.30;76.50;;;;;;5016039;28;20025;-79
2021/06/17 05:43:33;;;;;;;6.80;4.97;;;17.50;75.70;;;;;;5020837;28;20589;-78
2021/06/17 05:46:00;;;;;;;7.07;5.13;;;17.60;74.40;;;;;;5024125;28;20021;-78
2021/06/17 05:48:26;;;;;;;7.30;5.45;;;17.70;74.30;;;;;;5017255;28;20699;-79
2021/06/17 05:50:51;;;;;;;8.98;5.57;;;17.80;72.80;;;;;;5027594;28;20113;-78
2021/06/17 05:53:17;;;;;;;7.60;5.50;;;17.90;72.80;;;;;;5021478;28;20546;-79
2021/06/17 05:55:43;;;;;;;7.82;5.55;;;17.90;73.40;;;;;;5021649;28;20048;-78
2021/06/17 05:58:10;;;;;;;6.03;5.28;;;18.10;72.60;;;;;;5018768;28;20155;-79
2021/06/17 06:00:36;;;;;;;9.02;5.57;;;18.20;72.60;;;;;;5018308;28;20025;-78
2021/06/17 06:03:02;;;;;;;7.20;5.32;;;18.30;72.10;;;;;;5023692;28;20041;-77
2021/06/17 06:05:29;;;;;;;6.10;5.50;;;18.40;71.90;;;;;;5026086;28;20077;-77
2021/06/17 06:07:59;;;;;;;9.77;5.78;;;18.50;72.30;;;;;;5028249;28;20674;-78
2021/06/17 06:10:25;;;;;;;7.32;5.45;;;18.60;71.40;;;;;;5023550;28;20067;-78
2021/06/17 06:12:51;;;;;;;7.90;5.43;;;18.60;71.30;;;;;;5018645;28;20044;-76
2021/06/17 06:15:16;;;;;;;9.40;6.50;;;18.80;72.20;;;;;;5025698;28;20025;-77
2021/06/17 06:17:42;;;;;;;8.70;6.00;;;18.90;72.30;;;;;;5027277;28;20096;-79
2021/06/17 06:20:08;;;;;;;7.28;5.95;;;19.10;70.80;;;;;;5025383;28;22253;-78
2021/06/17 06:22:34;;;;;;;8.63;5.78;;;19.20;70.80;;;;;;5028190;28;20024;-78
2021/06/17 06:25:00;;;;;;;7.97;5.88;;;19.20;70.50;;;;;;5024623;28;20025;-78
2021/06/17 06:27:26;;;;;;;11.80;6.15;;;19.30;69.20;;;;;;5024930;28;20033;-78
2021/06/17 06:29:52;;;;;;;6.72;5.57;;;19.50;70.20;;;;;;5028403;28;20159;-78
2021/06/17 06:32:17;;;;;;;10.90;6.18;;;19.60;69.00;;;;;;5027084;28;20073;-79
2021/06/17 06:34:43;;;;;;;8.77;5.82;;;19.70;69.80;;;;;;5030294;28;20021;-77
2021/06/17 06:37:09;;;;;;;10.45;6.60;;;19.90;68.60;;;;;;5025882;28;20036;-79
2021/06/17 06:39:34;;;;;;;8.55;6.07;;;20.00;66.90;;;;;;5024821;28;20519;-78
2021/06/17 06:42:00;;;;;;;11.02;6.35;;;20.00;68.00;;;;;;5025993;28;20112;-79
2021/06/17 06:44:27;;;;;;;13.13;6.57;;;20.20;66.30;;;;;;5022212;28;20037;-77
2021/06/17 06:46:54;;;;;;;10.02;5.82;;;20.30;68.10;;;;;;5018583;28;20176;-76
2021/06/17 06:49:19;;;;;;;8.57;6.47;;;20.40;66.70;;;;;;5021318;28;20056;-76
2021/06/17 06:51:45;;;;;;;9.73;5.95;;;20.50;65.50;;;;;;5025992;28;20102;-76
2021/06/17 06:54:11;;;;;;;10.70;6.32;;;20.60;65.20;;;;;;5019321;28;20060;-77
2021/06/17 06:56:38;;;;;;;11.18;7.32;;;20.70;64.50;;;;;;5020652;28;20209;-76
2021/06/17 06:59:05;;;;;;;9.25;6.03;;;20.80;65.00;;;;;;5025889;28;20025;-77
2021/06/17 07:01:32;;;;;;;11.60;6.15;;;20.80;64.10;;;;;;5018239;28;20072;-77
2021/06/17 07:03:58;;;;;;;9.55;7.25;;;21.00;65.30;;;;;;5027528;28;20025;-77
2021/06/17 07:06:24;;;;;;;8.13;6.45;;;21.10;64.80;;;;;;5013335;28;20519;-77
2021/06/17 07:08:49;;;;;;;7.35;5.82;;;21.20;64.00;;;;;;5020247;28;20057;-75
2021/06/17 07:11:15;;;;;;;8.10;6.25;;;21.20;63.90;;;;;;5021348;28;20045;-77
2021/06/17 07:13:40;;;;;;;10.75;6.82;;;21.30;64.20;;;;;;5022542;28;20030;-76
2021/06/17 07:16:06;;;;;;;11.43;6.80;;;21.50;65.20;;;;;;5028522;28;20029;-76
2021/06/17 07:18:32;;;;;;;8.20;6.68;;;21.60;64.50;;;;;;5021618;28;20030;-76
2021/06/17 07:20:58;;;;;;;9.10;6.25;;;21.80;62.60;;;;;;5016286;28;20035;-76
2021/06/17 07:23:27;;;;;;;8.93;6.50;;;21.90;62.00;;;;;;5022852;28;20036;-77
2021/06/17 07:25:53;;;;;;;11.68;6.65;;;22.00;62.00;;;;;;5022642;28;20033;-76
2021/06/17 07:28:18;;;;;;;8.77;5.85;;;22.00;61.30;;;;;;5017532;28;20767;-77
2021/06/17 07:30:44;;;;;;;6.20;5.28;;;22.00;61.30;;;;;;5023668;28;20043;-77
2021/06/17 07:33:10;;;;;;;7.68;5.72;;;22.20;60.50;;;;;;5027846;28;20041;-77
2021/06/17 07:35:36;;;;;;;10.55;5.50;;;22.40;60.10;;;;;;5027519;28;20480;-78
2021/06/17 07:38:02;;;;;;;8.93;5.78;;;22.50;60.50;;;;;;5026282;28;20040;-77
2021/06/17 07:40:27;;;;;;;6.70;5.05;;;22.60;60.10;;;;;;5025004;28;20025;-77
2021/06/17 07:42:53;;;;;;;6.32;5.10;;;22.70;57.40;;;;;;5021398;28;20099;-77
2021/06/17 07:45:19;;;;;;;7.65;5.00;;;22.80;58.40;;;;;;5021555;28;20061;-77
2021/06/17 07:47:44;;;;;;;9.40;5.55;;;22.90;59.00;;;;;;5027513;28;20108;-77
2021/06/17 07:50:11;;;;;;;5.68;4.95;;;22.90;57.10;;;;;;5024570;28;20116;-77
2021/06/17 07:52:37;;;;;;;4.90;4.35;;;23.00;58.90;;;;;;5027490;28;20044;-77
2021/06/17 07:55:05;;;;;;;6.75;5.07;;;23.30;58.60;;;;;;5025808;28;20018;-77
2021/06/17 07:57:31;;;;;;;;;;;23.40;59.20;;;;;;5021035;28;20025;-77
2021/06/17 07:59:57;;;;;;;8.23;4.97;;;23.40;56.20;;;;;;5023879;28;19915;-77
2021/06/17 08:02:25;;;;;;;7.00;5.03;;;23.60;60.00;;;;;;5026112;28;20117;-78
2021/06/17 08:04:50;;;;;;;10.43;5.78;;;23.70;58.20;;;;;;5020973;28;20037;-77
2021/06/17 08:07:16;;;;;;;5.63;5.07;;;23.80;61.00;;;;;;5024665;28;20080;-77
2021/06/17 08:09:42;;;;;;;5.90;5.20;;;24.00;58.90;;;;;;5021246;28;20018;-77
2021/06/17 08:12:08;;;;;;;8.18;5.22;;;24.00;57.40;;;;;;5024558;28;20112;-77
2021/06/17 08:14:33;;;;;;;8.73;5.22;;;24.30;58.70;;;;;;5022120;28;20526;-78
2021/06/17 08:16:59;;;;;;;6.53;4.78;;;24.30;57.00;;;;;;5023264;28;20033;-78
2021/06/17 08:19:34;;;;;;;5.55;5.00;;;24.50;58.50;;;;;;5035607;28;20436;-79
2021/06/17 08:22:04;;;;;;;6.95;5.30;;;24.40;56.70;;;;;;5020715;28;20035;-78
2021/06/17 08:24:31;;;;;;;5.65;5.05;;;24.50;57.80;;;;;;5014518;28;20029;-77
2021/06/17 08:26:57;;;;;;;6.20;5.25;;;24.60;57.10;;;;;;5021890;28;20022;-77
2021/06/17 08:29:22;;;;;;;7.45;5.25;;;24.70;57.90;;;;;;5020659;28;20030;-77
2021/06/17 08:31:48;;;;;;;7.88;4.88;;;24.80;58.10;;;;;;5021766;28;20077;-78
2021/06/17 08:34:14;;;;;;;8.70;5.18;;;25.00;58.00;;;;;;5022973;28;20092;-78
2021/06/17 08:36:40;;;;;;;7.95;4.82;;;25.10;56.90;;;;;;5023999;28;20475;-77
2021/06/17 08:39:07;;;;;;;6.85;4.97;;;25.10;56.00;;;;;;5017785;28;20055;-78
2021/06/17 08:41:32;;;;;;;6.57;4.60;;;25.20;56.90;;;;;;5025346;28;20102;-78
2021/06/17 08:43:58;;;;;;;5.82;4.82;;;25.30;56.30;;;;;;5026841;28;20483;-77
2021/06/17 08:46:24;;;;;;;8.05;4.85;;;25.40;53.80;;;;;;5025334;28;20400;-79
2021/06/17 08:48:50;;;;;;;6.45;4.75;;;25.40;52.10;;;;;;5026167;28;20041;-77
2021/06/17 08:51:18;;;;;;;6.15;4.80;;;25.50;54.10;;;;;;5025310;28;20049;-77
2021/06/17 08:53:45;;;;;;;8.30;4.50;;;25.60;53.80;;;;;;5026673;28;20101;-80
2021/06/17 08:56:11;;;;;;;6.60;4.22;;;25.80;53.70;;;;;;5020078;28;20033;-79
2021/06/17 08:58:36;;;;;;;5.97;4.32;;;25.90;55.60;;;;;;5020166;28;20054;-79
2021/06/17 09:01:10;;;;;;;6.25;4.82;;;26.00;52.20;;;;;;5015359;28;20042;-77
2021/06/17 09:03:39;;;;;;;5.80;4.47;;;26.10;55.10;;;;;;5026441;28;20033;-78
2021/06/17 09:06:05;;;;;;;8.73;4.70;;;25.90;52.70;;;;;;5018213;28;20049;-78
2021/06/17 09:08:31;;;;;;;5.65;4.30;;;26.00;52.90;;;;;;5023815;28;20421;-79
2021/06/17 09:10:58;;;;;;;6.95;4.65;;;26.20;55.10;;;;;;5030344;28;20083;-78
2021/06/17 09:13:32;;;;;;;6.55;4.63;;;26.10;53.90;;;;;;5027603;28;20181;-78
2021/06/17 09:15:58;;;;;;;6.78;4.35;;;26.20;55.20;;;;;;5024155;28;20021;-78
2021/06/17 09:18:39;;;;;;;10.00;4.85;;;26.50;52.00;;;;;;5026200;28;20109;-78
2021/06/17 09:21:09;;;;;;;9.93;4.65;;;26.70;55.70;;;;;;5028138;28;20025;-78
2021/06/17 09:23:43;;;;;;;8.23;4.78;;;26.80;51.60;;;;;;5029580;28;20025;-78
2021/06/17 09:26:18;;;;;;;7.72;4.07;;;27.00;50.90;;;;;;5024563;28;20037;-78
2021/06/17 09:29:05;;;;;;;5.28;4.43;;;27.10;48.60;;;;;;5031312;28;20028;-78
2021/06/17 09:31:34;;;;;;;4.87;4.40;;;27.20;51.60;;;;;;5025911;28;20418;-77
2021/06/17 09:34:02;;;;;;;11.02;4.45;;;27.20;50.00;;;;;;5027295;28;20794;-78
2021/06/17 09:36:31;;;;;;;8.23;4.18;;;27.30;50.60;;;;;;5028690;28;20049;-78
2021/06/17 09:38:59;;;;;;;5.88;4.57;;;27.30;48.40;;;;;;5030052;28;20388;-79
2021/06/17 09:41:32;;;;;;;6.22;4.32;;;27.30;50.00;;;;;;5031266;28;20036;-78
2021/06/17 09:43:58;;;;;;;5.78;4.07;;;27.50;49.00;;;;;;5029751;28;20036;-79
2021/06/17 09:46:24;;;;;;;4.93;3.90;;;27.40;49.20;;;;;;5034230;28;20025;-78
2021/06/17 09:48:50;;;;;;;6.25;3.80;;;27.50;48.40;;;;;;5026203;28;20041;-78
2021/06/17 09:51:35;;;;;;;5.20;3.90;;;27.70;46.20;;;;;;5025221;28;20037;-77
2021/06/17 09:54:16;;;;;;;6.88;4.00;;;27.80;45.90;;;;;;5024804;28;20158;-77
2021/06/17 09:56:49;;;;;;;4.07;3.75;;;27.90;45.50;;;;;;5025914;28;20022;-79
2021/06/17 09:59:47;;;;;;;5.05;3.92;;;27.80;44.60;;;;;;5044853;28;22064;-79
2021/06/17 10:02:29;;;;;;;6.95;3.78;;;27.70;43.60;;;;;;5034555;28;20050;-78
2021/06/17 10:05:21;;;;;;;6.72;3.88;;;27.70;48.00;;;;;;5026891;28;20029;-79
2021/06/17 10:07:48;;;;;;;6.85;3.97;;;27.60;45.90;;;;;;5018233;28;20056;-78
2021/06/17 10:10:21;;;;;;;4.00;3.50;;;27.80;45.50;;;;;;5026570;28;20026;-79
2021/06/17 10:12:47;;;;;;;12.40;4.53;;;27.80;41.30;;;;;;5025658;28;20029;-78
2021/06/17 10:15:13;;;;;;;4.13;3.20;;;27.90;46.80;;;;;;5025755;28;20052;-78
2021/06/17 10:17:38;;;;;;;3.90;3.10;;;27.90;44.00;;;;;;5025942;28;20036;-78
2021/06/17 10:20:10;;;;;;;3.85;2.95;;;28.10;37.60;;;;;;5022952;28;20033;-79
2021/06/17 10:22:37;;;;;;;5.30;2.92;;;28.30;42.60;;;;;;5029683;28;20029;-78
2021/06/17 10:25:04;;;;;;;6.93;3.40;;;28.40;40.30;;;;;;5026059;28;20036;-78
2021/06/17 10:27:42;;;;;;;3.95;3.05;;;28.30;42.60;;;;;;5022660;28;20045;-78
2021/06/17 10:30:10;;;;;;;4.43;3.20;;;28.40;40.90;;;;;;5030388;28;20276;-78
2021/06/17 10:32:44;;;;;;;4.78;2.92;;;28.30;40.40;;;;;;5029244;28;20081;-78
2021/06/17 10:35:10;;;;;;;3.05;2.83;;;28.50;40.90;;;;;;5017398;28;20100;-78
2021/06/17 10:37:52;;;;;;;4.78;2.80;;;28.40;42.60;;;;;;5030811;28;20022;-78
2021/06/17 10:40:24;;;;;;;3.45;2.70;;;28.40;39.00;;;;;;5027783;28;20915;-79
2021/06/17 10:42:57;;;;;;;3.05;2.45;;;28.70;41.50;;;;;;5022253;28;20102;-78
2021/06/17 10:45:44;;;;;;;3.10;2.58;;;28.80;37.90;;;;;;5045136;28;20029;-77
2021/06/17 10:48:25;;;;;;;3.35;2.55;;;28.90;39.70;;;;;;5028548;28;20029;-78
2021/06/17 10:51:11;;;;;;;3.17;2.90;;;29.00;39.90;;;;;;5022414;28;20053;-79
2021/06/17 10:53:39;;;;;;;4.03;2.30;;;29.00;36.70;;;;;;5030564;28;20037;-78
2021/06/17 10:56:25;;;;;;;4.03;2.92;;;29.00;36.60;;;;;;5029711;28;20425;-79
2021/06/17 10:58:54;;;;;;;2.38;2.17;;;28.80;35.10;;;;;;5043559;28;20146;-78
2021/06/17 11:01:24;;;;;;;2.05;1.95;;;28.70;34.00;;;;;;5024912;28;20564;-78
2021/06/17 11:04:04;;;;;;;2.47;2.08;;;28.70;34.20;;;;;;5025310;28;20076;-78
2021/06/17 11:06:57;;;;;;;5.30;2.58;;;28.90;37.50;;;;;;5026418;28;20026;-79
2021/06/17 11:09:35;;;;;;;2.72;2.08;;;28.90;39.10;;;;;;5026643;28;20151;-78
2021/06/17 11:12:26;;;;;;;2.65;2.42;;;28.90;37.70;;;;;;5021325;28;20120;-78
2021/06/17 11:15:01;;;;;;;3.42;2.70;;;28.90;38.40;;;;;;5023536;28;20030;-78
2021/06/17 11:17:29;;;;;;;3.00;2.65;;;28.70;34.00;;;;;;5019919;28;20024;-79
2021/06/17 11:19:56;;;;;;;2.67;2.47;;;28.80;35.60;;;;;;5025599;28;20121;-79
2021/06/17 11:22:44;;;;;;;4.00;2.60;;;28.70;34.70;;;;;;5022792;28;20021;-79
2021/06/17 11:25:12;;;;;;;3.03;2.70;;;28.60;32.80;;;;;;5028668;28;20111;-79
2021/06/17 11:27:58;;;;;;;2.78;2.58;;;28.80;35.40;;;;;;5023647;28;20072;-78
2021/06/17 11:30:45;;;;;;;2.65;2.45;;;29.00;34.70;;;;;;5019203;28;20143;-80
2021/06/17 11:35:46;;;;;;;2.70;2.50;;;29.20;33.00;;;;;;5020963;28;21473;-79
2021/06/17 11:38:12;;;;;;;4.18;2.42;;;29.20;32.40;;;;;;5026708;28;20441;-79
2021/06/17 11:40:38;;;;;;;3.08;2.78;;;29.20;32.60;;;;;;5021306;28;20030;-79
2021/06/17 11:43:04;;;;;;;3.60;2.55;;;29.20;32.40;;;;;;5026824;28;20021;-78
2021/06/17 11:45:35;;;;;;;3.35;2.53;;;29.20;32.70;;;;;;5031301;28;20217;-79
2021/06/17 11:48:03;;;;;;;2.58;2.38;;;29.30;31.50;;;;;;5025085;28;20044;-78
2021/06/17 11:50:29;;;;;;;5.15;2.42;;;29.30;31.50;;;;;;5028962;28;20032;-80
2021/06/17 11:52:56;;;;;;;5.53;2.70;;;29.20;33.00;;;;;;5023696;28;20037;-79
2021/06/17 11:55:22;;;;;;;2.55;2.35;;;29.30;35.20;;;;;;5028814;28;20018;-78
2021/06/17 11:57:48;;;;;;;2.90;2.60;;;29.50;36.20;;;;;;5025942;28;20484;-78
2021/06/17 12:00:34;;;;;;;3.83;2.80;;;29.50;35.00;;;;;;5031410;28;20175;-78
2021/06/17 12:02:59;;;;;;;5.22;2.88;;;29.50;34.30;;;;;;5045193;28;20061;-78
2021/06/17 12:05:27;;;;;;;4.00;2.53;;;29.60;35.50;;;;;;5046487;28;20053;-79
2021/06/17 12:07:54;;;;;;;2.90;2.38;;;29.60;32.70;;;;;;5046554;28;20071;-78
2021/06/17 12:10:31;;;;;;;3.00;2.70;;;29.60;33.50;;;;;;5040484;28;20028;-78
2021/06/17 12:13:03;;;;;;;4.10;3.17;;;29.50;33.70;;;;;;5048981;28;20047;-78
2021/06/17 12:15:39;;;;;;;3.13;2.83;;;29.40;34.70;;;;;;5047768;28;20025;-78
2021/06/17 12:18:07;;;;;;;3.83;3.40;;;29.40;34.90;;;;;;5048053;28;20021;-79
2021/06/17 12:20:38;;;;;;;3.83;3.40;;;29.40;35.40;;;;;;5039143;28;20660;-79
2021/06/17 12:23:28;;;;;;;5.97;2.97;;;29.50;36.60;;;;;;5038410;28;20057;-78
2021/06/17 12:25:58;;;;;;;2.83;2.63;;;29.50;36.20;;;;;;5038308;28;20097;-78
2021/06/17 12:28:25;;;;;;;3.40;2.60;;;29.50;35.20;;;;;;5038855;28;20021;-78
2021/06/17 12:30:53;;;;;;;4.50;2.80;;;29.40;33.60;;;;;;5034527;28;20037;-79
2021/06/17 12:33:20;;;;;;;3.22;2.83;;;29.30;37.20;;;;;;5040638;28;20025;-78
2021/06/17 12:35:57;;;;;;;3.08;2.72;;;29.30;36.70;;;;;;5041849;28;20026;-78
2021/06/17 12:38:23;;;;;;;;;;;29.20;39.40;;;;;;5049812;28;20025;-78
2021/06/17 12:40:49;;;;;;;3.42;3.13;;;29.30;39.20;;;;;;5040048;28;20639;-79
2021/06/17 12:43:26;;;;;;;3.55;3.00;;;29.30;39.50;;;;;;5036568;28;20729;-78
2021/06/17 12:46:07;;;;;;;5.35;3.60;;;29.20;39.40;;;;;;5044357;28;20033;-78
2021/06/17 12:54:26;;;;;;;3.25;3.05;;;29.20;37.90;;;;;;5041753;28;20107;-78
2021/06/17 12:56:58;;;;;;;3.38;3.08;;;29.20;37.40;;;;;;5041685;28;20057;-78
2021/06/17 12:59:54;;;;;;;3.95;2.80;;;29.10;38.00;;;;;;5036074;28;20018;-78
2021/06/17 13:02:19;;;;;;;4.25;2.85;;;29.00;39.40;;;;;;5036633;28;20111;-79
2021/06/17 13:04:59;;;;;;;3.90;3.03;;;29.00;37.10;;;;;;5048367;28;20104;-79
2021/06/17 13:07:25;;;;;;;5.55;3.20;;;29.10;36.50;;;;;;5037402;28;20035;-79
2021/06/17 13:09:51;;;;;;;3.30;2.97;;;29.00;37.20;;;;;;5038946;28;20042;-78